sensor_id;sensor_type;location;lat;lon;timestamp;pressure;altitude;pressure_sealevel;temperature;humidity
23899;BME280;20544;50.018;20.010;2023-02-23T00:02:56;98940.28;;;1.09;100.00
23899;BME280;20544;50.018;20.010;2023-02-23T00:06:14;98938.02;;;1.04;100.00
23899;BME280;20544;50.018;20.010;2023-02-23T00:09:31;98934.80;;;1.01;100.00
23899;BME280;20544;50.018;20.010;2023-02-23T00:12:48;98932.19;;;1.01;100.00
23899;BME280;20544;50.018;20.010;2023-02-23T00:16:07;98937.06;;;0.94;100.00
23899;BME280;20544;50.018;20.010;2023-02-23T00:19:25;98933.84;;;0.90;100.00
23899;BME280;20544;50.018;20.010;2023-02-23T00:22:43;98933.36;;;0.85;100.00
23899;BME280;20544;50.018;20.010;2023-02-23T00:25:59;98936.58;;;0.89;100.00
23899;BME280;20544;50.018;20.010;2023-02-23T00:29:20;98932.30;;;0.88;100.00
23899;BME280;20544;50.018;20.010;2023-02-23T00:32:37;98934.19;;;0.86;100.00
23899;BME280;20544;50.018;20.010;2023-02-23T00:35:53;98946.16;;;0.77;100.00
23899;BME280;20544;50.018;20.010;2023-02-23T00:39:11;98941.17;;;0.74;100.00
23899;BME280;20544;50.018;20.010;2023-02-23T00:42:33;98934.86;;;0.65;100.00
23899;BME280;20544;50.018;20.010;2023-02-23T00:45:49;98935.56;;;0.67;100.00
23899;BME280;20544;50.018;20.010;2023-02-23T00:49:10;98935.08;;;0.62;100.00
23899;BME280;20544;50.018;20.010;2023-02-23T00:52:27;98932.59;;;0.60;100.00
23899;BME280;20544;50.018;20.010;2023-02-23T00:55:43;98934.26;;;0.61;100.00
23899;BME280;20544;50.018;20.010;2023-02-23T00:58:59;98940.88;;;0.54;100.00
23899;BME280;20544;50.018;20.010;2023-02-23T01:02:15;98944.09;;;0.58;100.00
23899;BME280;20544;50.018;20.010;2023-02-23T01:05:34;98933.50;;;0.48;100.00
23899;BME280;20544;50.018;20.010;2023-02-23T01:08:52;98935.86;;;0.51;100.00
23899;BME280;20544;50.018;20.010;2023-02-23T01:12:11;98934.44;;;0.47;100.00
23899;BME280;20544;50.018;20.010;2023-02-23T01:15:28;98935.63;;;0.43;100.00
23899;BME280;20544;50.018;20.010;2023-02-23T01:18:45;98935.95;;;0.38;100.00
23899;BME280;20544;50.018;20.010;2023-02-23T01:22:03;98932.36;;;0.28;100.00
23899;BME280;20544;50.018;20.010;2023-02-23T01:25:20;98934.64;;;0.33;100.00
23899;BME280;20544;50.018;20.010;2023-02-23T01:28:38;98932.36;;;0.28;100.00
23899;BME280;20544;50.018;20.010;2023-02-23T01:31:54;98920.25;;;0.27;100.00
23899;BME280;20544;50.018;20.010;2023-02-23T01:35:13;98927.27;;;0.26;100.00
23899;BME280;20544;50.018;20.010;2023-02-23T01:38:29;98916.70;;;0.28;100.00
23899;BME280;20544;50.018;20.010;2023-02-23T01:41:46;98913.61;;;0.23;100.00
23899;BME280;20544;50.018;20.010;2023-02-23T01:45:25;98921.03;;;0.16;100.00
23899;BME280;20544;50.018;20.010;2023-02-23T01:48:43;98912.27;;;0.17;100.00
23899;BME280;20544;50.018;20.010;2023-02-23T01:52:02;98906.55;;;0.12;100.00
23899;BME280;20544;50.018;20.010;2023-02-23T01:55:21;98900.61;;;0.10;100.00
23899;BME280;20544;50.018;20.010;2023-02-23T01:58:40;98904.19;;;0.09;100.00
23899;BME280;20544;50.018;20.010;2023-02-23T02:01:59;98897.17;;;0.09;100.00
23899;BME280;20544;50.018;20.010;2023-02-23T02:05:20;98894.89;;;0.05;100.00
23899;BME280;20544;50.018;20.010;2023-02-23T02:08:37;98896.20;;;-0.01;100.00
23899;BME280;20544;50.018;20.010;2023-02-23T02:11:55;98895.46;;;-0.03;100.00
23899;BME280;20544;50.018;20.010;2023-02-23T02:15:14;98891.30;;;-0.06;100.00
23899;BME280;20544;50.018;20.010;2023-02-23T02:18:36;98887.75;;;-0.05;100.00
23899;BME280;20544;50.018;20.010;2023-02-23T02:22:11;98888.91;;;-0.09;100.00
23899;BME280;20544;50.018;20.010;2023-02-23T02:26:01;98885.47;;;-0.09;100.00
23899;BME280;20544;50.018;20.010;2023-02-23T02:29:49;98889.25;;;-0.13;100.00
23899;BME280;20544;50.018;20.010;2023-02-23T02:33:50;98883.10;;;-0.12;100.00
23899;BME280;20544;50.018;20.010;2023-02-23T02:37:36;98878.59;;;-0.10;100.00
23899;BME280;20544;50.018;20.010;2023-02-23T02:41:04;98878.83;;;-0.13;100.00
23899;BME280;20544;50.018;20.010;2023-02-23T02:44:29;98874.88;;;-0.19;100.00
23899;BME280;20544;50.018;20.010;2023-02-23T02:47:52;98873.20;;;-0.20;100.00
23899;BME280;20544;50.018;20.010;2023-02-23T02:51:15;98873.32;;;-0.22;100.00
23899;BME280;20544;50.018;20.010;2023-02-23T02:54:37;98868.55;;;-0.28;100.00
23899;BME280;20544;50.018;20.010;2023-02-23T02:57:57;98869.28;;;-0.26;100.00
23899;BME280;20544;50.018;20.010;2023-02-23T03:01:17;98863.33;;;-0.28;100.00
23899;BME280;20544;50.018;20.010;2023-02-23T03:04:48;98863.56;;;-0.31;100.00
23899;BME280;20544;50.018;20.010;2023-02-23T03:08:22;98866.27;;;-0.33;100.00
23899;BME280;20544;50.018;20.010;2023-02-23T03:12:00;98860.34;;;-0.35;100.00
23899;BME280;20544;50.018;20.010;2023-02-23T03:15:43;98867.31;;;-0.35;100.00
23899;BME280;20544;50.018;20.010;2023-02-23T03:19:19;98862.22;;;-0.37;100.00
23899;BME280;20544;50.018;20.010;2023-02-23T03:22:57;98855.08;;;-0.46;100.00
23899;BME280;20544;50.018;20.010;2023-02-23T03:26:33;98854.95;;;-0.44;100.00
23899;BME280;20544;50.018;20.010;2023-02-23T03:30:10;98860.17;;;-0.44;100.00
23899;BME280;20544;50.018;20.010;2023-02-23T03:33:49;98860.17;;;-0.44;100.00
23899;BME280;20544;50.018;20.010;2023-02-23T03:37:23;98859.44;;;-0.46;100.00
23899;BME280;20544;50.018;20.010;2023-02-23T03:40:56;98853.41;;;-0.47;100.00
23899;BME280;20544;50.018;20.010;2023-02-23T03:44:31;98855.39;;;-0.51;100.00
23899;BME280;20544;50.018;20.010;2023-02-23T03:48:06;98856.33;;;-0.52;100.00
23899;BME280;20544;50.018;20.010;2023-02-23T03:51:40;98859.98;;;-0.54;100.00
23899;BME280;20544;50.018;20.010;2023-02-23T03:55:15;98856.45;;;-0.53;100.00
23899;BME280;20544;50.018;20.010;2023-02-23T03:58:50;98857.27;;;-0.53;100.00
23899;BME280;20544;50.018;20.010;2023-02-23T04:02:24;98855.52;;;-0.52;100.00
23899;BME280;20544;50.018;20.010;2023-02-23T04:05:57;98857.50;;;-0.56;100.00
23899;BME280;20544;50.018;20.010;2023-02-23T04:09:28;98866.14;;;-0.55;100.00
23899;BME280;20544;50.018;20.010;2023-02-23T04:13:01;98858.12;;;-0.52;100.00
23899;BME280;20544;50.018;20.010;2023-02-23T04:16:23;98860.22;;;-0.57;100.00
23899;BME280;20544;50.018;20.010;2023-02-23T04:19:36;98865.64;;;-0.60;100.00
23899;BME280;20544;50.018;20.010;2023-02-23T04:22:52;98852.61;;;-0.60;100.00
23899;BME280;20544;50.018;20.010;2023-02-23T04:26:09;98848.68;;;-0.66;100.00
23899;BME280;20544;50.018;20.010;2023-02-23T04:29:25;98851.17;;;-0.64;100.00
23899;BME280;20544;50.018;20.010;2023-02-23T04:32:41;98857.20;;;-0.64;100.00
23899;BME280;20544;50.018;20.010;2023-02-23T04:35:58;98851.98;;;-0.64;100.00
23899;BME280;20544;50.018;20.010;2023-02-23T04:39:14;98853.36;;;-0.71;100.00
23899;BME280;20544;50.018;20.010;2023-02-23T04:42:30;98855.34;;;-0.75;100.00
23899;BME280;20544;50.018;20.010;2023-02-23T04:45:48;98846.82;;;-0.77;100.00
23899;BME280;20544;50.018;20.010;2023-02-23T04:49:05;98841.38;;;-0.74;100.00
23899;BME280;20544;50.018;20.010;2023-02-23T04:52:22;98844.84;;;-0.73;100.00
23899;BME280;20544;50.018;20.010;2023-02-23T04:55:39;98843.28;;;-0.76;100.00
23899;BME280;20544;50.018;20.010;2023-02-23T04:58:55;98843.98;;;-0.74;100.00
23899;BME280;20544;50.018;20.010;2023-02-23T05:02:11;98843.91;;;-0.72;100.00
23899;BME280;20544;50.018;20.010;2023-02-23T05:05:28;98847.64;;;-0.76;100.00
23899;BME280;20544;50.018;20.010;2023-02-23T05:08:44;98850.48;;;-0.79;100.00
23899;BME280;20544;50.018;20.010;2023-02-23T05:12:01;98840.26;;;-0.83;100.00
23899;BME280;20544;50.018;20.010;2023-02-23T05:15:18;98843.91;;;-0.85;100.00
23899;BME280;20544;50.018;20.010;2023-02-23T05:18:34;98844.14;;;-0.88;100.00
23899;BME280;20544;50.018;20.010;2023-02-23T05:21:50;98843.09;;;-0.86;100.00
23899;BME280;20544;50.018;20.010;2023-02-23T05:25:08;98842.58;;;-0.91;100.00
23899;BME280;20544;50.018;20.010;2023-02-23T05:28:25;98848.73;;;-0.92;100.00
23899;BME280;20544;50.018;20.010;2023-02-23T05:31:41;98845.50;;;-0.95;100.00
23899;BME280;20544;50.018;20.010;2023-02-23T05:34:57;98850.91;;;-0.99;100.00
23899;BME280;20544;50.018;20.010;2023-02-23T05:38:14;98855.06;;;-0.96;100.00
23899;BME280;20544;50.018;20.010;2023-02-23T05:41:30;98848.22;;;-0.97;100.00
23899;BME280;20544;50.018;20.010;2023-02-23T05:44:47;98855.92;;;-0.95;100.00
23899;BME280;20544;50.018;20.010;2023-02-23T05:48:06;98849.97;;;-0.98;100.00
23899;BME280;20544;50.018;20.010;2023-02-23T05:51:25;98855.18;;;-0.98;100.00
23899;BME280;20544;50.018;20.010;2023-02-23T05:54:42;98856.97;;;-0.98;100.00
23899;BME280;20544;50.018;20.010;2023-02-23T05:57:58;98851.88;;;-1.00;100.00
23899;BME280;20544;50.018;20.010;2023-02-23T06:01:15;98856.03;;;-0.97;100.00
23899;BME280;20544;50.018;20.010;2023-02-23T06:04:32;98857.67;;;-0.96;100.00
23899;BME280;20544;50.018;20.010;2023-02-23T06:07:49;98854.25;;;-0.96;100.00
23899;BME280;20544;50.018;20.010;2023-02-23T06:11:05;98853.20;;;-0.94;100.00
23899;BME280;20544;50.018;20.010;2023-02-23T06:14:22;98856.31;;;-0.89;100.00
23899;BME280;20544;50.018;20.010;2023-02-23T06:17:38;98853.51;;;-0.86;100.00
23899;BME280;20544;50.018;20.010;2023-02-23T06:20:57;98864.32;;;-0.79;100.00
23899;BME280;20544;50.018;20.010;2023-02-23T06:24:13;98865.45;;;-0.70;100.00
23899;BME280;20544;50.018;20.010;2023-02-23T06:27:30;98860.97;;;-0.68;100.00
23899;BME280;20544;50.018;20.010;2023-02-23T06:30:46;98862.84;;;-0.70;100.00
23899;BME280;20544;50.018;20.010;2023-02-23T06:34:03;98866.06;;;-0.67;100.00
23899;BME280;20544;50.018;20.010;2023-02-23T06:37:20;98870.96;;;-0.62;100.00
23899;BME280;20544;50.018;20.010;2023-02-23T06:40:36;98869.80;;;-0.58;100.00
23899;BME280;20544;50.018;20.010;2023-02-23T06:43:52;98865.00;;;-0.51;100.00
23899;BME280;20544;50.018;20.010;2023-02-23T06:47:09;98865.38;;;-0.44;100.00
23899;BME280;20544;50.018;20.010;2023-02-23T06:50:25;98876.61;;;-0.31;100.00
23899;BME280;20544;50.018;20.010;2023-02-23T06:53:42;98875.92;;;-0.22;100.00
23899;BME280;20544;50.018;20.010;2023-02-23T06:56:58;98868.16;;;-0.10;100.00
23899;BME280;20544;50.018;20.010;2023-02-23T07:00:19;98878.55;;;0.03;100.00
23899;BME280;20544;50.018;20.010;2023-02-23T07:03:38;98872.92;;;0.20;100.00
23899;BME280;20544;50.018;20.010;2023-02-23T07:06:55;98870.13;;;0.46;100.00
23899;BME280;20544;50.018;20.010;2023-02-23T07:10:12;98875.88;;;0.62;100.00
23899;BME280;20544;50.018;20.010;2023-02-23T07:13:29;98871.75;;;0.83;100.00
23899;BME280;20544;50.018;20.010;2023-02-23T07:16:47;98891.23;;;1.01;100.00
23899;BME280;20544;50.018;20.010;2023-02-23T07:20:06;98884.20;;;1.36;100.00
23899;BME280;20544;50.018;20.010;2023-02-23T07:23:22;98884.27;;;1.68;100.00
23899;BME280;20544;50.018;20.010;2023-02-23T07:26:38;98886.95;;;1.89;100.00
23899;BME280;20544;50.018;20.010;2023-02-23T07:29:56;98886.17;;;2.10;100.00
23899;BME280;20544;50.018;20.010;2023-02-23T07:33:13;98884.22;;;2.23;100.00
23899;BME280;20544;50.018;20.010;2023-02-23T07:36:32;98882.44;;;2.45;100.00
23899;BME280;20544;50.018;20.010;2023-02-23T07:39:48;98879.52;;;2.59;100.00
23899;BME280;20544;50.018;20.010;2023-02-23T07:43:12;98887.03;;;2.74;100.00
23899;BME280;20544;50.018;20.010;2023-02-23T07:46:31;98885.23;;;2.96;100.00
23899;BME280;20544;50.018;20.010;2023-02-23T07:49:47;98883.48;;;3.06;100.00
23899;BME280;20544;50.018;20.010;2023-02-23T07:53:03;98875.48;;;3.07;100.00
23899;BME280;20544;50.018;20.010;2023-02-23T07:56:20;98883.09;;;3.11;100.00
23899;BME280;20544;50.018;20.010;2023-02-23T07:59:37;98881.86;;;3.15;100.00
23899;BME280;20544;50.018;20.010;2023-02-23T08:02:53;98879.05;;;3.06;100.00
23899;BME280;20544;50.018;20.010;2023-02-23T08:06:09;98878.05;;;2.98;100.00
23899;BME280;20544;50.018;20.010;2023-02-23T08:09:26;98878.52;;;3.03;100.00
23899;BME280;20544;50.018;20.010;2023-02-23T08:12:44;98875.08;;;2.81;100.00
23899;BME280;20544;50.018;20.010;2023-02-23T08:16:00;98870.27;;;2.86;100.00
23899;BME280;20544;50.018;20.010;2023-02-23T08:19:17;98871.64;;;2.81;100.00
23899;BME280;20544;50.018;20.010;2023-02-23T08:22:36;98879.74;;;2.78;100.00
23899;BME280;20544;50.018;20.010;2023-02-23T08:25:55;98871.94;;;2.87;100.00
23899;BME280;20544;50.018;20.010;2023-02-23T08:29:12;98875.41;;;2.88;100.00
23899;BME280;20544;50.018;20.010;2023-02-23T08:32:30;98879.80;;;2.87;100.00
23899;BME280;20544;50.018;20.010;2023-02-23T08:35:48;98880.65;;;2.88;100.00
23899;BME280;20544;50.018;20.010;2023-02-23T08:39:06;98874.23;;;3.02;100.00
23899;BME280;20544;50.018;20.010;2023-02-23T08:42:22;98878.14;;;3.17;100.00
23899;BME280;20544;50.018;20.010;2023-02-23T08:45:39;98873.86;;;3.16;100.00
23899;BME280;20544;50.018;20.010;2023-02-23T08:48:56;98878.67;;;3.52;100.00
23899;BME280;20544;50.018;20.010;2023-02-23T08:52:12;98883.81;;;3.63;100.00
23899;BME280;20544;50.018;20.010;2023-02-23T08:55:28;98883.29;;;3.79;100.00
23899;BME280;20544;50.018;20.010;2023-02-23T08:58:48;98875.14;;;3.92;100.00
23899;BME280;20544;50.018;20.010;2023-02-23T09:02:05;98878.88;;;3.89;100.00
23899;BME280;20544;50.018;20.010;2023-02-23T09:05:23;98870.59;;;3.84;100.00
23899;BME280;20544;50.018;20.010;2023-02-23T09:08:39;98876.66;;;3.85;100.00
23899;BME280;20544;50.018;20.010;2023-02-23T09:11:55;98870.45;;;3.96;100.00
23899;BME280;20544;50.018;20.010;2023-02-23T09:15:14;98871.84;;;4.10;100.00
23899;BME280;20544;50.018;20.010;2023-02-23T09:18:31;98876.67;;;4.04;100.00
23899;BME280;20544;50.018;20.010;2023-02-23T09:21:50;98868.80;;;4.04;100.00
23899;BME280;20544;50.018;20.010;2023-02-23T09:25:09;98867.84;;;4.25;100.00
23899;BME280;20544;50.018;20.010;2023-02-23T09:28:33;98867.14;;;4.33;100.00
23899;BME280;20544;50.018;20.010;2023-02-23T09:32:08;98869.21;;;4.39;100.00
23899;BME280;20544;50.018;20.010;2023-02-23T09:35:52;98874.88;;;4.34;100.00
23899;BME280;20544;50.018;20.010;2023-02-23T09:39:29;98859.11;;;4.44;100.00
23899;BME280;20544;50.018;20.010;2023-02-23T09:42:51;98859.52;;;4.49;100.00
23899;BME280;20544;50.018;20.010;2023-02-23T09:46:17;98868.89;;;4.62;100.00
23899;BME280;20544;50.018;20.010;2023-02-23T09:49:39;98867.77;;;4.74;100.00
23899;BME280;20544;50.018;20.010;2023-02-23T09:53:00;98864.00;;;4.86;100.00
23899;BME280;20544;50.018;20.010;2023-02-23T09:56:23;98857.59;;;4.99;100.00
23899;BME280;20544;50.018;20.010;2023-02-23T09:59:41;98861.28;;;5.16;100.00
23899;BME280;20544;50.018;20.010;2023-02-23T10:03:07;98868.44;;;5.24;100.00
23899;BME280;20544;50.018;20.010;2023-02-23T10:06:32;98855.13;;;5.25;100.00
23899;BME280;20544;50.018;20.010;2023-02-23T10:10:05;98857.61;;;5.27;100.00
23899;BME280;20544;50.018;20.010;2023-02-23T10:13:32;98858.06;;;5.22;100.00
23899;BME280;20544;50.018;20.010;2023-02-23T10:16:59;98852.25;;;5.46;100.00
23899;BME280;20544;50.018;20.010;2023-02-23T10:20:24;98846.17;;;5.46;100.00
23899;BME280;20544;50.018;20.010;2023-02-23T10:23:45;98841.67;;;5.56;100.00
23899;BME280;20544;50.018;20.010;2023-02-23T10:27:07;98845.44;;;5.72;100.00
23899;BME280;20544;50.018;20.010;2023-02-23T10:30:29;98841.33;;;5.87;100.00
23899;BME280;20544;50.018;20.010;2023-02-23T10:33:45;98841.33;;;5.87;100.00
23899;BME280;20544;50.018;20.010;2023-02-23T10:37:03;98838.76;;;5.95;100.00
23899;BME280;20544;50.018;20.010;2023-02-23T10:40:24;98834.95;;;6.08;100.00
23899;BME280;20544;50.018;20.010;2023-02-23T10:43:39;98835.48;;;6.11;100.00
23899;BME280;20544;50.018;20.010;2023-02-23T10:46:59;98835.92;;;6.25;100.00
23899;BME280;20544;50.018;20.010;2023-02-23T10:50:21;98829.07;;;6.32;100.00
23899;BME280;20544;50.018;20.010;2023-02-23T10:53:42;98815.98;;;6.22;100.00
23899;BME280;20544;50.018;20.010;2023-02-23T10:57:00;98815.94;;;6.40;100.00
23899;BME280;20544;50.018;20.010;2023-02-23T11:00:31;98809.51;;;6.17;100.00
23899;BME280;20544;50.018;20.010;2023-02-23T11:03:50;98807.31;;;6.30;100.00
23899;BME280;20544;50.018;20.010;2023-02-23T11:07:14;98812.07;;;6.53;100.00
23899;BME280;20544;50.018;20.010;2023-02-23T11:10:30;98802.27;;;6.63;100.00
23899;BME280;20544;50.018;20.010;2023-02-23T11:13:48;98798.39;;;6.75;100.00
23899;BME280;20544;50.018;20.010;2023-02-23T11:17:05;98794.74;;;6.76;100.00
23899;BME280;20544;50.018;20.010;2023-02-23T11:20:30;98793.60;;;6.79;100.00
23899;BME280;20544;50.018;20.010;2023-02-23T11:23:51;98791.48;;;6.83;100.00
23899;BME280;20544;50.018;20.010;2023-02-23T11:27:18;98790.85;;;6.89;100.00
23899;BME280;20544;50.018;20.010;2023-02-23T11:30:38;98785.16;;;7.02;100.00
23899;BME280;20544;50.018;20.010;2023-02-23T11:33:58;98784.36;;;7.09;100.00
23899;BME280;20544;50.018;20.010;2023-02-23T11:37:26;98769.05;;;7.21;100.00
23899;BME280;20544;50.018;20.010;2023-02-23T11:41:09;98772.88;;;7.27;100.00
23899;BME280;20544;50.018;20.010;2023-02-23T11:44:32;98761.98;;;7.30;100.00
23899;BME280;20544;50.018;20.010;2023-02-23T11:47:50;98761.03;;;7.39;100.00
23899;BME280;20544;50.018;20.010;2023-02-23T11:51:10;98759.54;;;7.45;100.00
23899;BME280;20544;50.018;20.010;2023-02-23T11:54:37;98761.20;;;7.46;100.00
23899;BME280;20544;50.018;20.010;2023-02-23T11:57:53;98754.27;;;7.45;100.00
23899;BME280;20544;50.018;20.010;2023-02-23T12:01:33;98753.95;;;7.48;100.00
23899;BME280;20544;50.018;20.010;2023-02-23T12:05:03;98755.27;;;7.52;100.00
23899;BME280;20544;50.018;20.010;2023-02-23T12:08:27;98750.64;;;7.46;100.00
23899;BME280;20544;50.018;20.010;2023-02-23T12:11:56;98745.55;;;7.53;100.00
23899;BME280;20544;50.018;20.010;2023-02-23T12:15:21;98738.80;;;7.50;100.00
23899;BME280;20544;50.018;20.010;2023-02-23T12:18:49;98734.48;;;7.57;100.00
23899;BME280;20544;50.018;20.010;2023-02-23T12:22:11;98731.03;;;7.57;100.00
23899;BME280;20544;50.018;20.010;2023-02-23T12:25:39;98730.55;;;7.61;100.00
23899;BME280;20544;50.018;20.010;2023-02-23T12:29:01;98712.07;;;7.61;100.00
23899;BME280;20544;50.018;20.010;2023-02-23T12:32:20;98717.84;;;7.57;100.00
23899;BME280;20544;50.018;20.010;2023-02-23T12:35:45;98713.88;;;7.61;100.00
23899;BME280;20544;50.018;20.010;2023-02-23T12:39:12;98718.34;;;7.60;100.00
23899;BME280;20544;50.018;20.010;2023-02-23T12:42:34;98709.93;;;7.65;100.00
23899;BME280;20544;50.018;20.010;2023-02-23T12:46:04;98709.41;;;7.70;100.00
23899;BME280;20544;50.018;20.010;2023-02-23T12:49:27;98703.99;;;7.71;100.00
23899;BME280;20544;50.018;20.010;2023-02-23T12:52:57;98700.66;;;7.77;100.00
23899;BME280;20544;50.018;20.010;2023-02-23T12:56:41;98697.21;;;7.77;100.00
23899;BME280;20544;50.018;20.010;2023-02-23T13:08:05;98678.38;;;7.88;100.00
23899;BME280;20544;50.018;20.010;2023-02-23T13:11:37;98669.97;;;7.85;100.00
23899;BME280;20544;50.018;20.010;2023-02-23T13:15:10;98670.14;;;7.91;100.00
23899;BME280;20544;50.018;20.010;2023-02-23T13:18:37;98656.77;;;7.93;100.00
23899;BME280;20544;50.018;20.010;2023-02-23T13:22:00;98665.81;;;7.99;100.00
23899;BME280;20544;50.018;20.010;2023-02-23T13:25:32;98661.20;;;8.01;100.00
23899;BME280;20544;50.018;20.010;2023-02-23T13:28:53;98659.23;;;8.03;100.00
23899;BME280;20544;50.018;20.010;2023-02-23T13:32:13;98657.22;;;8.05;100.00
23899;BME280;20544;50.018;20.010;2023-02-23T13:35:35;98658.73;;;8.07;100.00
23899;BME280;20544;50.018;20.010;2023-02-23T13:39:27;98652.28;;;8.10;100.00
23899;BME280;20544;50.018;20.010;2023-02-23T13:43:02;98645.66;;;8.14;100.00
23899;BME280;20544;50.018;20.010;2023-02-23T13:46:29;98645.16;;;8.19;100.00
23899;BME280;20544;50.018;20.010;2023-02-23T13:49:56;98639.88;;;8.19;100.00
23899;BME280;20544;50.018;20.010;2023-02-23T13:53:33;98639.34;;;8.23;100.00
23899;BME280;20544;50.018;20.010;2023-02-23T13:56:57;98632.08;;;8.25;100.00
23899;BME280;20544;50.018;20.010;2023-02-23T14:00:20;98624.96;;;8.26;100.00
23899;BME280;20544;50.018;20.010;2023-02-23T14:03:51;98623.80;;;8.29;100.00
23899;BME280;20544;50.018;20.010;2023-02-23T14:07:17;98618.52;;;8.29;100.00
23899;BME280;20544;50.018;20.010;2023-02-23T14:10:41;98622.98;;;8.28;100.00
23899;BME280;20544;50.018;20.010;2023-02-23T14:14:02;98613.59;;;8.25;100.00
23899;BME280;20544;50.018;20.010;2023-02-23T14:17:43;98616.41;;;8.24;100.00
23899;BME280;20544;50.018;20.010;2023-02-23T14:21:18;98617.39;;;8.23;100.00
23899;BME280;20544;50.018;20.010;2023-02-23T14:24:41;98612.11;;;8.23;100.00
23899;BME280;20544;50.018;20.010;2023-02-23T14:28:00;98614.58;;;8.24;100.00
23899;BME280;20544;50.018;20.010;2023-02-23T14:31:21;98608.30;;;8.25;100.00
23899;BME280;20544;50.018;20.010;2023-02-23T14:34:50;98608.30;;;8.25;100.00
23899;BME280;20544;50.018;20.010;2023-02-23T14:38:23;98596.92;;;8.25;100.00
23899;BME280;20544;50.018;20.010;2023-02-23T14:41:51;98593.25;;;8.26;100.00
23899;BME280;20544;50.018;20.010;2023-02-23T14:45:18;98590.47;;;8.28;100.00
23899;BME280;20544;50.018;20.010;2023-02-23T14:48:40;98584.34;;;8.27;100.00
23899;BME280;20544;50.018;20.010;2023-02-23T14:52:03;98584.52;;;8.25;100.00
23899;BME280;20544;50.018;20.010;2023-02-23T14:55:25;98579.23;;;8.25;100.00
23899;BME280;20544;50.018;20.010;2023-02-23T14:58:43;98575.78;;;8.25;100.00
23899;BME280;20544;50.018;20.010;2023-02-23T15:02:08;98572.30;;;8.24;100.00
23899;BME280;20544;50.018;20.010;2023-02-23T15:05:29;98564.19;;;8.26;100.00
23899;BME280;20544;50.018;20.010;2023-02-23T15:08:46;98552.99;;;8.24;100.00
23899;BME280;20544;50.018;20.010;2023-02-23T15:12:12;98557.44;;;8.23;100.00
23899;BME280;20544;50.018;20.010;2023-02-23T15:15:34;98554.16;;;8.21;100.00
23899;BME280;20544;50.018;20.010;2023-02-23T15:18:53;98549.87;;;8.20;100.00
23899;BME280;20544;50.018;20.010;2023-02-23T15:22:19;98551.66;;;8.20;100.00
23899;BME280;20544;50.018;20.010;2023-02-23T15:25:39;98542.13;;;8.19;100.00
23899;BME280;20544;50.018;20.010;2023-02-23T15:29:03;98546.74;;;8.17;100.00
23899;BME280;20544;50.018;20.010;2023-02-23T15:32:23;98529.42;;;8.14;100.00
23899;BME280;20544;50.018;20.010;2023-02-23T15:35:43;98532.39;;;8.11;100.00
23899;BME280;20544;50.018;20.010;2023-02-23T15:39:04;98530.77;;;8.10;100.00
23899;BME280;20544;50.018;20.010;2023-02-23T15:42:24;98528.45;;;8.07;100.00
23899;BME280;20544;50.018;20.010;2023-02-23T15:45:47;98527.64;;;8.06;100.00
23899;BME280;20544;50.018;20.010;2023-02-23T15:49:04;98524.34;;;8.04;100.00
23899;BME280;20544;50.018;20.010;2023-02-23T15:52:25;98523.68;;;8.02;100.00
23899;BME280;20544;50.018;20.010;2023-02-23T15:55:44;98512.48;;;8.00;100.00
23899;BME280;20544;50.018;20.010;2023-02-23T15:59:08;98518.09;;;7.97;100.00
23899;BME280;20544;50.018;20.010;2023-02-23T16:02:29;98511.16;;;7.96;100.00
23899;BME280;20544;50.018;20.010;2023-02-23T16:05:54;98514.16;;;7.93;100.00
23899;BME280;20544;50.018;20.010;2023-02-23T16:09:27;98508.21;;;7.91;100.00
23899;BME280;20544;50.018;20.010;2023-02-23T16:12:47;98507.58;;;7.89;100.00
23899;BME280;20544;50.018;20.010;2023-02-23T16:16:07;98499.80;;;7.87;100.00
23899;BME280;20544;50.018;20.010;2023-02-23T16:19:29;98503.61;;;7.85;100.00
23899;BME280;20544;50.018;20.010;2023-02-23T16:22:48;98504.60;;;7.84;100.00
23899;BME280;20544;50.018;20.010;2023-02-23T16:26:09;98503.30;;;7.80;100.00
23899;BME280;20544;50.018;20.010;2023-02-23T16:29:36;98503.00;;;7.74;100.00
23899;BME280;20544;50.018;20.010;2023-02-23T16:33:08;98501.34;;;7.73;100.00
23899;BME280;20544;50.018;20.010;2023-02-23T16:36:37;98498.22;;;7.70;100.00
23899;BME280;20544;50.018;20.010;2023-02-23T16:39:59;98495.94;;;7.67;100.00
23899;BME280;20544;50.018;20.010;2023-02-23T16:43:16;98496.44;;;7.62;100.00
23899;BME280;20544;50.018;20.010;2023-02-23T16:46:53;98499.25;;;7.60;100.00
23899;BME280;20544;50.018;20.010;2023-02-23T16:50:18;98495.95;;;7.58;100.00
23899;BME280;20544;50.018;20.010;2023-02-23T16:53:36;98496.13;;;7.57;100.00
23899;BME280;20544;50.018;20.010;2023-02-23T16:56:56;98490.18;;;7.55;100.00
23899;BME280;20544;50.018;20.010;2023-02-23T17:00:19;98485.74;;;7.55;100.00
23899;BME280;20544;50.018;20.010;2023-02-23T17:03:37;98477.52;;;7.50;100.00
23899;BME280;20544;50.018;20.010;2023-02-23T17:06:55;98489.42;;;7.29;100.00
23899;BME280;20544;50.018;20.010;2023-02-23T17:10:15;98485.48;;;7.17;100.00
23899;BME280;20544;50.018;20.010;2023-02-23T17:13:37;98485.02;;;7.05;100.00
23899;BME280;20544;50.018;20.010;2023-02-23T17:16:57;98478.92;;;6.88;100.00
23899;BME280;20544;50.018;20.010;2023-02-23T17:20:14;98478.58;;;6.75;100.00
23899;BME280;20544;50.018;20.010;2023-02-23T17:23:34;98482.05;;;6.67;100.00
23899;BME280;20544;50.018;20.010;2023-02-23T17:26:56;98478.41;;;6.60;100.00
23899;BME280;20544;50.018;20.010;2023-02-23T17:30:14;98477.74;;;6.58;100.00
23899;BME280;20544;50.018;20.010;2023-02-23T17:33:32;98469.84;;;6.58;100.00
23899;BME280;20544;50.018;20.010;2023-02-23T17:36:51;98465.58;;;6.57;100.00
23899;BME280;20544;50.018;20.010;2023-02-23T17:40:11;98462.95;;;6.57;100.00
23899;BME280;20544;50.018;20.010;2023-02-23T17:43:34;98459.48;;;6.48;100.00